createdAt,value
2022-08-07T00:01:44.540Z,21.00
2022-08-07T00:04:26.533Z,26.05
2022-08-07T00:06:56.919Z,19.00
2022-08-07T00:09:35.482Z,26.27
2022-08-07T00:12:06.857Z,29.15
2022-08-07T00:14:41.072Z,21.85
2022-08-07T00:17:14.928Z,25.60
2022-08-07T00:20:01.358Z,32.90
2022-08-07T00:22:35.088Z,21.13
2022-08-07T00:25:15.809Z,22.70
2022-08-07T00:27:53.199Z,27.02
2022-08-07T00:30:27.604Z,25.00
2022-08-07T00:33:00.118Z,21.63
2022-08-07T00:35:31.629Z,24.35
2022-08-07T00:38:05.723Z,23.67
2022-08-07T00:40:40.374Z,20.35
2022-08-07T00:43:59.260Z,21.65
2022-08-07T00:46:07.984Z,19.58
2022-08-07T00:48:42.044Z,24.83
2022-08-07T00:51:13.330Z,23.77
2022-08-07T00:53:50.054Z,22.30
2022-08-07T00:56:22.062Z,21.63
2022-08-07T00:58:52.650Z,23.65
2022-08-07T01:01:23.624Z,22.98
2022-08-07T01:04:00.463Z,23.67
2022-08-07T01:06:34.135Z,25.35
2022-08-07T01:09:07.899Z,27.58
2022-08-07T01:12:23.476Z,27.83
2022-08-07T01:14:29.418Z,27.13
2022-08-07T01:17:04.215Z,25.13
2022-08-07T01:19:38.445Z,31.95
2022-08-07T01:22:16.219Z,31.20
2022-08-07T01:24:53.850Z,36.38
2022-08-07T01:27:32.047Z,29.27
2022-08-07T01:30:03.682Z,33.50
2022-08-07T01:32:34.466Z,29.25
2022-08-07T01:35:05.076Z,32.42
2022-08-07T01:37:35.836Z,26.23
2022-08-07T01:40:14.777Z,34.58
2022-08-07T01:42:57.637Z,32.03
2022-08-07T01:45:36.441Z,32.17
2022-08-07T01:48:19.023Z,27.30
2022-08-07T01:52:01.884Z,27.30
2022-08-07T01:54:21.884Z,31.75
2022-08-07T01:57:24.944Z,27.65
2022-08-07T02:00:17.771Z,29.52
2022-08-07T02:03:18.856Z,25.75
2022-08-07T02:05:59.928Z,29.00
2022-08-07T02:08:37.496Z,30.23
2022-08-07T02:11:31.073Z,26.88
2022-08-07T02:14:07.478Z,37.92
2022-08-07T02:16:40.339Z,24.50
2022-08-07T02:20:05.034Z,24.60
2022-08-07T02:22:07.925Z,25.20
2022-08-07T02:24:39.502Z,24.83
2022-08-07T02:27:21.229Z,29.65
2022-08-07T02:29:55.844Z,28.15
2022-08-07T02:32:30.048Z,24.80
2022-08-07T02:35:02.324Z,28.88
2022-08-07T02:37:44.119Z,25.48
2022-08-07T02:40:31.077Z,24.10
2022-08-07T02:43:08.263Z,33.45
2022-08-07T02:45:58.361Z,25.75
2022-08-07T02:48:31.787Z,20.73
2022-08-07T02:51:14.241Z,29.02
2022-08-07T02:54:02.649Z,24.90
2022-08-07T02:56:35.372Z,30.85
2022-08-07T02:59:12.212Z,30.33
2022-08-07T03:01:47.238Z,29.63
2022-08-07T03:04:23.818Z,28.17
2022-08-07T03:06:58.631Z,26.52
2022-08-07T03:09:43.268Z,24.48
2022-08-07T03:12:31.052Z,32.58
2022-08-07T03:15:07.902Z,24.33
2022-08-07T03:17:54.013Z,23.75
2022-08-07T03:20:26.166Z,25.00
2022-08-07T03:22:57.568Z,24.77
2022-08-07T03:25:40.171Z,25.80
2022-08-07T03:28:37.225Z,25.85
2022-08-07T03:31:24.618Z,21.85
2022-08-07T03:34:03.137Z,20.80
2022-08-07T03:36:35.409Z,21.85
2022-08-07T03:39:11.344Z,23.10
2022-08-07T03:41:47.496Z,24.45
2022-08-07T03:44:21.656Z,18.52
2022-08-07T03:47:13.927Z,23.00
2022-08-07T03:49:51.964Z,20.95
2022-08-07T03:52:27.153Z,20.27
2022-08-07T03:55:06.771Z,23.25
2022-08-07T03:58:34.861Z,20.00
2022-08-07T04:00:36.659Z,16.67
2022-08-07T04:03:09.929Z,19.85
2022-08-07T04:05:42.332Z,18.60
2022-08-07T04:08:18.457Z,20.60
2022-08-07T04:10:54.260Z,19.35
2022-08-07T04:14:10.745Z,15.77
2022-08-07T04:16:34.521Z,20.77
2022-08-07T04:19:12.750Z,18.88
2022-08-07T04:21:59.389Z,19.00
2022-08-07T04:24:39.005Z,21.00
2022-08-07T04:27:20.426Z,15.35
2022-08-07T04:30:02.028Z,17.15
2022-08-07T04:32:35.624Z,22.85
2022-08-07T04:35:11.425Z,14.38
2022-08-07T04:38:03.054Z,12.95
2022-08-07T04:40:32.617Z,17.75
2022-08-07T04:43:03.830Z,12.73
2022-08-07T04:46:05.681Z,16.48
2022-08-07T04:49:07.498Z,15.38
2022-08-07T04:52:02.169Z,15.73
2022-08-07T04:54:54.171Z,14.80
2022-08-07T04:58:32.072Z,16.15
2022-08-07T05:00:38.107Z,13.98
2022-08-07T05:04:07.272Z,14.40
2022-08-07T05:09:46.647Z,11.80
2022-08-07T05:12:27.102Z,16.50
2022-08-07T05:15:24.076Z,15.25
2022-08-07T05:18:09.044Z,12.48
2022-08-07T05:20:53.964Z,12.77
2022-08-07T05:23:35.600Z,10.70
2022-08-07T05:26:12.899Z,14.75
2022-08-07T05:28:51.976Z,20.60
2022-08-07T05:31:35.246Z,14.73
2022-08-07T05:34:12.621Z,13.80
2022-08-07T05:36:53.147Z,10.52
2022-08-07T05:40:13.899Z,15.27
2022-08-07T05:42:33.856Z,13.32
2022-08-07T05:45:26.343Z,11.80
2022-08-07T05:48:02.176Z,10.57
2022-08-07T05:50:39.509Z,12.93
2022-08-07T05:54:12.867Z,13.98
2022-08-07T05:56:06.078Z,10.38
2022-08-07T05:58:39.567Z,9.68
2022-08-07T06:01:12.664Z,9.80
2022-08-07T06:03:56.753Z,11.90
2022-08-07T06:06:32.395Z,11.35
2022-08-07T06:09:04.452Z,13.02
2022-08-07T06:11:36.988Z,10.32
2022-08-07T06:14:11.676Z,8.93
2022-08-07T06:16:50.438Z,10.93
2022-08-07T06:19:57.866Z,10.30
2022-08-07T06:22:23.987Z,11.00
2022-08-07T06:25:10.058Z,10.40
2022-08-07T06:28:00.372Z,14.23
2022-08-07T06:30:35.964Z,11.15
2022-08-07T06:33:15.840Z,12.65
2022-08-07T06:36:12.856Z,16.13
2022-08-07T06:38:38.140Z,15.82
2022-08-07T06:42:02.689Z,17.70
2022-08-07T06:44:22.758Z,15.93
2022-08-07T06:47:10.532Z,12.77
2022-08-07T06:49:52.465Z,14.93
2022-08-07T06:52:36.457Z,10.77
2022-08-07T06:55:31.348Z,14.10
2022-08-07T06:58:21.526Z,11.88
2022-08-07T07:00:56.192Z,11.25
2022-08-07T07:03:40.140Z,9.02
2022-08-07T07:06:26.242Z,9.43
2022-08-07T07:08:58.160Z,10.32
2022-08-07T07:12:08.178Z,11.75
2022-08-07T07:14:23.066Z,9.23
2022-08-07T07:16:57.602Z,11.57
2022-08-07T07:19:56.100Z,11.13
2022-08-07T07:22:35.783Z,12.73
2022-08-07T07:26:30.591Z,6.78
2022-08-07T07:28:07.764Z,8.82
2022-08-07T07:31:07.073Z,9.50
2022-08-07T07:33:38.957Z,8.18
2022-08-07T07:36:13.481Z,11.80
2022-08-07T07:38:48.631Z,7.53
2022-08-07T07:41:21.138Z,11.95
2022-08-07T07:44:16.810Z,8.52
2022-08-07T07:46:57.299Z,6.97
2022-08-07T07:50:34.754Z,7.30
2022-08-07T07:52:32.506Z,11.57
2022-08-07T07:55:03.605Z,8.25
2022-08-07T07:57:52.250Z,8.13
2022-08-07T08:00:31.559Z,8.43
2022-08-07T08:03:17.077Z,6.75
2022-08-07T08:06:05.425Z,5.13
2022-08-07T08:08:41.772Z,6.50
2022-08-07T08:11:17.813Z,5.57
2022-08-07T08:13:54.660Z,6.68
2022-08-07T08:16:53.544Z,7.68
2022-08-07T08:20:16.179Z,8.90
2022-08-07T08:22:54.380Z,6.25
2022-08-07T08:25:48.995Z,8.45
2022-08-07T08:28:37.422Z,7.50
2022-08-07T08:31:16.333Z,9.73
2022-08-07T08:33:57.883Z,9.88
2022-08-07T08:36:33.811Z,8.13
2022-08-07T08:39:07.516Z,10.25
2022-08-07T08:41:57.674Z,8.23
2022-08-07T08:44:44.606Z,6.13
2022-08-07T08:47:25.408Z,9.15
2022-08-07T08:50:10.820Z,6.65
2022-08-07T08:52:53.680Z,7.20
2022-08-07T08:55:55.142Z,5.22
2022-08-07T08:58:54.507Z,6.40
2022-08-07T09:01:43.793Z,5.07
2022-08-07T09:04:32.874Z,10.05
2022-08-07T09:07:27.520Z,13.80
2022-08-07T09:10:22.183Z,15.25
2022-08-07T09:13:15.676Z,9.40
2022-08-07T09:16:23.066Z,6.72
2022-08-07T09:19:53.412Z,7.35
2022-08-07T09:24:27.523Z,6.78
2022-08-07T09:25:20.281Z,10.32
2022-08-07T09:29:24.457Z,11.88
2022-08-07T09:31:13.362Z,10.43
2022-08-07T09:34:20.891Z,17.50
2022-08-07T09:37:08.827Z,12.07
2022-08-07T09:40:08.118Z,6.55
2022-08-07T09:42:57.513Z,11.77
2022-08-07T09:47:50.136Z,10.48
2022-08-07T09:49:59.424Z,7.65
2022-08-07T09:52:33.594Z,6.20
2022-08-07T09:55:29.921Z,9.20
2022-08-07T09:58:36.565Z,13.18
2022-08-07T10:01:51.221Z,14.35
2022-08-07T10:04:28.120Z,22.65
2022-08-07T10:07:52.531Z,12.68
2022-08-07T10:11:16.753Z,20.20
2022-08-07T10:14:11.187Z,13.52
2022-08-07T10:17:02.190Z,15.48
2022-08-07T10:20:13.055Z,14.95
2022-08-07T10:22:55.680Z,17.45
2022-08-07T10:25:53.892Z,19.75
2022-08-07T10:28:49.899Z,17.17
2022-08-07T10:31:23.063Z,13.93
2022-08-07T10:34:17.869Z,13.52
2022-08-07T10:37:16.793Z,12.73
2022-08-07T10:40:03.040Z,24.30
2022-08-07T10:43:34.895Z,18.60
2022-08-07T10:46:27.898Z,17.77
2022-08-07T10:49:16.789Z,13.63
2022-08-07T10:52:13.227Z,19.08
2022-08-07T10:55:21.230Z,21.67
2022-08-07T10:58:16.916Z,18.20
2022-08-07T11:00:58.081Z,16.75
2022-08-07T11:04:17.037Z,12.20
2022-08-07T11:10:42.133Z,14.70
2022-08-07T11:14:41.994Z,9.10
2022-08-07T11:16:30.679Z,14.57
2022-08-07T11:19:21.562Z,15.48
2022-08-07T11:22:26.449Z,14.38
2022-08-07T11:24:57.560Z,14.95
2022-08-07T11:28:03.124Z,13.52
2022-08-07T11:30:55.947Z,13.10
2022-08-07T11:33:58.698Z,11.20
2022-08-07T11:36:52.018Z,16.38
2022-08-07T11:40:00.048Z,13.63
2022-08-07T11:42:50.503Z,15.00
2022-08-07T11:45:49.961Z,10.33
2022-08-07T11:48:53.995Z,11.95
2022-08-07T11:51:56.568Z,16.33
2022-08-07T11:54:55.074Z,14.63
2022-08-07T11:58:00.505Z,12.90
2022-08-07T12:01:05.313Z,21.67
2022-08-07T12:04:05.688Z,14.43
2022-08-07T12:07:38.768Z,18.77
2022-08-07T12:10:23.921Z,19.00
2022-08-07T12:13:11.374Z,19.48
2022-08-07T12:16:06.142Z,25.15
2022-08-07T12:18:54.599Z,21.17
2022-08-07T12:22:36.543Z,13.68
2022-08-07T12:24:40.517Z,18.00
2022-08-07T12:27:27.985Z,13.07
2022-08-07T12:30:12.894Z,15.48
2022-08-07T12:33:23.524Z,16.73
2022-08-07T12:36:02.297Z,13.40
2022-08-07T12:38:42.540Z,25.60
2022-08-07T12:41:16.339Z,21.90
2022-08-07T12:44:02.513Z,19.88
2022-08-07T12:47:27.080Z,13.60
2022-08-07T12:50:34.215Z,19.92
2022-08-07T12:53:27.578Z,13.55
2022-08-07T12:56:18.250Z,15.23
2022-08-07T12:58:57.022Z,16.02
2022-08-07T13:01:35.045Z,21.55
2022-08-07T13:04:38.882Z,18.27
2022-08-07T13:08:12.655Z,29.27
2022-08-07T13:11:27.061Z,13.52
2022-08-07T13:14:11.812Z,18.70
2022-08-07T13:17:39.843Z,21.45
2022-08-07T13:20:58.729Z,15.27
2022-08-07T13:24:00.767Z,19.17
2022-08-07T13:26:44.589Z,19.20
2022-08-07T13:29:23.151Z,152.18
2022-08-07T13:32:23.752Z,59.20
2022-08-07T13:37:58.785Z,37.67
2022-08-07T13:41:00.401Z,44.60
2022-08-07T13:46:12.072Z,33.38
2022-08-07T13:49:03.016Z,36.80
2022-08-07T13:52:05.178Z,40.45
2022-08-07T13:54:34.100Z,31.05
2022-08-07T13:57:11.647Z,29.77
2022-08-07T13:59:54.974Z,25.60
2022-08-07T14:02:49.147Z,25.92
2022-08-07T14:05:37.468Z,23.35
2022-08-07T14:08:10.845Z,21.10
2022-08-07T14:10:43.839Z,24.30
2022-08-07T14:13:21.025Z,24.13
2022-08-07T14:16:15.374Z,29.85
2022-08-07T14:18:56.751Z,31.08
2022-08-07T14:22:01.120Z,45.30
2022-08-07T14:24:41.656Z,33.60
2022-08-07T14:28:11.544Z,25.88
2022-08-07T14:30:12.682Z,28.02
2022-08-07T14:32:57.176Z,23.80
2022-08-07T14:35:45.558Z,23.48
2022-08-07T14:38:30.517Z,25.50
2022-08-07T14:41:12.162Z,24.02
2022-08-07T14:43:55.486Z,24.80
2022-08-07T14:46:33.197Z,25.55
2022-08-07T14:49:17.670Z,23.50
2022-08-07T14:52:02.878Z,33.83
2022-08-07T14:54:41.790Z,25.23
2022-08-07T14:57:19.069Z,24.27
2022-08-07T15:00:04.473Z,27.20
2022-08-07T15:02:40.359Z,29.90
2022-08-07T15:05:20.644Z,26.33
2022-08-07T15:07:55.131Z,33.67
2022-08-07T15:10:30.169Z,48.92
2022-08-07T15:13:11.815Z,46.92
2022-08-07T15:15:52.438Z,27.95
2022-08-07T15:25:14.832Z,20.80
2022-08-07T15:27:12.197Z,22.20
2022-08-07T15:30:08.967Z,22.42
2022-08-07T15:33:03.738Z,35.47
2022-08-07T15:36:00.503Z,25.95
2022-08-07T15:38:58.599Z,26.38
2022-08-07T15:42:43.667Z,20.95
2022-08-07T15:44:24.016Z,15.27
2022-08-07T15:47:03.601Z,20.63
2022-08-07T15:50:05.584Z,31.95
2022-08-07T15:52:32.980Z,29.70
2022-08-07T15:55:09.037Z,27.13
2022-08-07T15:57:48.414Z,20.88
2022-08-07T16:00:31.401Z,20.92
2022-08-07T16:03:20.590Z,25.92
2022-08-07T16:05:54.940Z,24.00
2022-08-07T16:08:30.914Z,24.00
2022-08-07T16:11:26.815Z,21.50
2022-08-07T16:14:03.889Z,35.53
2022-08-07T16:16:57.181Z,22.13
2022-08-07T16:19:59.012Z,17.90
2022-08-07T16:22:39.331Z,24.55
2022-08-07T16:25:54.491Z,22.88
2022-08-07T16:30:06.723Z,26.52
2022-08-07T16:32:33.072Z,19.50
2022-08-07T16:35:52.404Z,23.33
2022-08-07T16:39:00.179Z,22.52
2022-08-07T16:41:54.017Z,21.85
2022-08-07T16:45:15.029Z,22.60
2022-08-07T16:47:57.271Z,17.83
2022-08-07T16:51:20.953Z,18.73
2022-08-07T16:54:09.286Z,22.20
2022-08-07T16:58:01.083Z,20.83
2022-08-07T17:00:30.062Z,22.30
2022-08-07T17:03:58.365Z,17.40
2022-08-07T17:06:39.841Z,14.73
2022-08-07T17:10:07.008Z,16.10
2022-08-07T17:12:46.742Z,13.30
2022-08-07T17:15:59.865Z,27.02
2022-08-07T17:18:47.347Z,15.25
2022-08-07T17:21:24.713Z,17.50
2022-08-07T17:24:33.129Z,17.83
2022-08-07T17:27:20.233Z,16.73
2022-08-07T17:30:19.985Z,23.17
2022-08-07T17:33:03.337Z,17.88
2022-08-07T17:35:50.771Z,21.38
2022-08-07T17:38:50.137Z,20.10
2022-08-07T17:42:07.430Z,21.83
2022-08-07T17:44:50.344Z,21.90
2022-08-07T17:47:44.317Z,22.30
2022-08-07T17:50:19.817Z,25.45
2022-08-07T17:52:58.975Z,14.70
2022-08-07T17:58:59.487Z,18.67
2022-08-07T18:01:49.617Z,39.88
2022-08-07T18:04:44.360Z,19.70
2022-08-07T18:07:28.563Z,19.90
2022-08-07T18:10:32.601Z,18.45
2022-08-07T18:13:15.584Z,17.95
2022-08-07T18:16:32.598Z,22.90
2022-08-07T18:21:11.507Z,15.57
2022-08-07T18:22:37.049Z,15.27
2022-08-07T18:35:24.161Z,9.50
2022-08-07T18:38:56.910Z,10.23
2022-08-07T18:41:45.306Z,15.23
2022-08-07T18:45:44.168Z,12.80
2022-08-07T18:48:00.670Z,11.50
2022-08-07T18:50:51.441Z,14.38
2022-08-07T18:56:15.805Z,10.60
2022-08-07T18:59:10.592Z,12.63
2022-08-07T19:02:36.771Z,9.60
2022-08-07T19:06:02.787Z,13.70
2022-08-07T19:08:47.275Z,9.20
2022-08-07T19:12:05.226Z,15.45
2022-08-07T19:16:02.804Z,16.25
2022-08-07T19:18:34.816Z,9.98
2022-08-07T19:21:44.336Z,7.38
2022-08-07T19:24:55.551Z,12.43
2022-08-07T19:28:58.135Z,12.80
2022-08-07T19:31:03.013Z,15.23
2022-08-07T19:33:15.354Z,14.00
2022-08-07T19:35:59.301Z,16.25
2022-08-07T19:38:33.010Z,15.43
2022-08-07T19:41:06.126Z,18.88
2022-08-07T19:43:43.776Z,15.32
2022-08-07T19:46:29.085Z,14.82
2022-08-07T19:49:08.426Z,13.65
2022-08-07T19:51:52.902Z,10.63
2022-08-07T19:54:45.134Z,9.73
2022-08-07T19:58:02.986Z,12.30
2022-08-07T20:00:30.366Z,13.32
2022-08-07T20:03:32.749Z,9.45
2022-08-07T20:06:04.471Z,10.30
2022-08-07T20:08:50.238Z,13.18
2022-08-07T20:12:01.443Z,9.13
2022-08-07T20:14:31.641Z,17.55
2022-08-07T20:17:04.412Z,13.52
2022-08-07T20:19:48.335Z,9.27
2022-08-07T20:22:34.281Z,10.23
2022-08-07T20:25:19.809Z,9.00
2022-08-07T20:27:58.122Z,14.70
2022-08-07T20:30:37.609Z,8.82
2022-08-07T20:33:24.307Z,13.60
2022-08-07T20:36:07.270Z,8.02
2022-08-07T20:38:59.526Z,9.20
2022-08-07T20:41:37.778Z,9.02
2022-08-07T20:44:13.173Z,5.95
2022-08-07T20:46:45.487Z,7.63
2022-08-07T20:49:58.516Z,16.25
2022-08-07T20:52:21.181Z,8.27
2022-08-07T20:55:00.599Z,7.65
2022-08-07T20:57:37.272Z,8.10
2022-08-07T21:00:09.611Z,7.93
2022-08-07T21:03:01.259Z,10.88
2022-08-07T21:05:50.865Z,10.70
2022-08-07T21:08:40.880Z,6.97
2022-08-07T21:11:21.936Z,10.60
2022-08-07T21:14:31.507Z,7.07
2022-08-07T21:18:01.095Z,9.93
2022-08-07T21:20:04.423Z,6.50
2022-08-07T21:22:51.259Z,5.75
2022-08-07T21:25:23.982Z,10.77
2022-08-07T21:28:49.492Z,8.13
2022-08-07T21:31:31.448Z,7.30
2022-08-07T21:34:16.356Z,16.00
2022-08-07T21:37:05.470Z,13.60
2022-08-07T21:39:56.750Z,9.80
2022-08-07T21:42:58.298Z,9.02
2022-08-07T21:46:07.895Z,12.55
2022-08-07T21:48:41.258Z,6.95
2022-08-07T21:51:25.107Z,6.53
2022-08-07T21:54:15.906Z,5.78
2022-08-07T21:57:04.021Z,7.45
2022-08-07T22:00:03.015Z,7.97
2022-08-07T22:03:05.824Z,9.13
2022-08-07T22:05:52.196Z,9.00
2022-08-07T22:08:26.186Z,13.95
2022-08-07T22:11:02.461Z,10.85
2022-08-07T22:13:51.299Z,15.25
2022-08-07T22:16:56.361Z,12.35
2022-08-07T22:19:45.170Z,11.27
2022-08-07T22:22:32.112Z,12.55
2022-08-07T22:25:08.345Z,10.20
2022-08-07T22:28:31.637Z,15.63
2022-08-07T22:31:12.109Z,14.07
2022-08-07T22:34:13.755Z,12.65
2022-08-07T22:38:04.571Z,11.32
2022-08-07T22:40:41.285Z,12.57
2022-08-07T22:43:20.475Z,18.10
2022-08-07T22:46:42.786Z,11.25
2022-08-07T22:49:33.971Z,17.98
2022-08-07T22:55:23.119Z,13.85
2022-08-07T22:57:53.888Z,13.80
2022-08-07T23:00:41.598Z,12.85
2022-08-07T23:03:58.496Z,15.95
2022-08-07T23:06:51.813Z,11.55
2022-08-07T23:10:01.084Z,12.68
2022-08-07T23:12:48.214Z,14.40
2022-08-07T23:16:05.785Z,12.65
2022-08-07T23:19:48.169Z,13.75
2022-08-07T23:22:49.149Z,8.15
2022-08-07T23:25:31.711Z,12.93
2022-08-07T23:28:31.169Z,14.95
2022-08-07T23:31:11.548Z,10.77
2022-08-07T23:34:36.721Z,12.05
2022-08-07T23:37:22.796Z,15.43
2022-08-07T23:40:33.905Z,14.60
2022-08-07T23:43:25.386Z,9.15
2022-08-07T23:46:20.053Z,12.02
2022-08-07T23:48:54.258Z,12.85
2022-08-07T23:52:58.452Z,12.50
2022-08-07T23:54:46.382Z,11.88
2022-08-07T23:57:23.159Z,13.10
